Time;durP1;ratioP1;P1;durP2;ratioP2;P2;SDS_P1;SDS_P2;PMS_P1;PMS_P2;Temp;Humidity;BMP_temperature;BMP_pressure;BME280_temperature;BME280_humidity;BME280_pressure;Samples;Min_cycle;Max_cycle;Signal;HPM_P1;HPM_P2
2023/09/24 00:02:04;;;;;;;1.53;1.43;;;16.20;40.00;;;;;;10267923;28;20251;-72
2023/09/24 00:07:07;;;;;;;1.83;1.50;;;16.10;39.90;;;;;;10264737;28;20227;-72
2023/09/24 00:12:12;;;;;;;3.30;1.70;;;16.10;40.00;;;;;;10264382;28;20227;-72
2023/09/24 00:17:16;;;;;;;1.83;1.53;;;16.10;40.00;;;;;;10264408;28;20231;-72
2023/09/24 00:22:19;;;;;;;2.23;2.13;;;16.10;39.80;;;;;;10263340;28;20227;-72
2023/09/24 00:27:24;;;;;;;2.00;1.80;;;16.00;39.70;;;;;;10266061;28;20227;-72
2023/09/24 00:32:27;;;;;;;3.20;2.10;;;16.00;39.90;;;;;;10266408;28;20274;-72
2023/09/24 00:37:31;;;;;;;2.00;1.90;;;15.90;39.80;;;;;;10263835;28;20318;-72
2023/09/24 00:42:35;;;;;;;2.67;1.87;;;15.80;39.80;;;;;;10263933;28;20237;-72
2023/09/24 00:47:41;;;;;;;1.40;1.30;;;15.80;39.80;;;;;;10269456;28;20908;-72
2023/09/24 00:52:46;;;;;;;1.70;1.60;;;15.70;39.70;;;;;;10259410;28;20305;-72
2023/09/24 00:57:51;;;;;;;1.60;1.50;;;15.70;39.80;;;;;;10260809;28;20228;-72
2023/09/24 01:02:55;;;;;;;1.60;1.50;;;15.60;39.80;;;;;;10263489;28;20238;-72
2023/09/24 01:07:58;;;;;;;1.70;1.60;;;15.50;39.50;;;;;;10262395;28;20228;-72
2023/09/24 01:13:04;;;;;;;1.60;1.50;;;15.40;39.50;;;;;;10264366;28;20223;-72
2023/09/24 01:18:08;;;;;;;1.60;1.50;;;15.30;39.80;;;;;;10257707;28;20985;-72
2023/09/24 01:23:13;;;;;;;2.40;1.43;;;15.20;39.80;;;;;;10261500;28;20275;-72
2023/09/24 01:28:17;;;;;;;1.73;1.63;;;15.10;40.00;;;;;;10260850;28;20653;-72
2023/09/24 01:33:21;;;;;;;1.57;1.40;;;15.10;39.90;;;;;;10264621;28;20224;-71
2023/09/24 01:38:26;;;;;;;2.17;1.47;;;15.10;39.90;;;;;;10265537;28;20246;-72
2023/09/24 01:43:31;;;;;;;1.87;1.30;;;15.10;39.90;;;;;;10258585;28;20240;-71
2023/09/24 01:48:34;;;;;;;1.30;1.20;;;15.10;39.80;;;;;;10262748;28;20234;-71
2023/09/24 01:53:40;;;;;;;1.73;1.40;;;15.10;39.80;;;;;;10262346;28;20579;-71
2023/09/24 01:58:43;;;;;;;2.13;1.60;;;15.10;39.70;;;;;;10263230;28;20294;-71
2023/09/24 02:03:47;;;;;;;1.20;1.20;;;15.10;39.40;;;;;;10260744;28;20223;-71
2023/09/24 02:08:52;;;;;;;1.33;1.27;;;15.10;39.40;;;;;;10263577;28;20251;-71
2023/09/24 02:13:55;;;;;;;1.30;1.20;;;15.10;39.50;;;;;;10262162;28;20234;-71
2023/09/24 02:19:00;;;;;;;1.20;1.20;;;15.00;39.40;;;;;;10259511;28;20227;-76
2023/09/24 02:24:06;;;;;;;1.53;1.40;;;15.00;39.50;;;;;;10253018;28;20369;-72
2023/09/24 02:29:09;;;;;;;2.40;1.50;;;14.90;39.40;;;;;;10252086;28;20231;-73
2023/09/24 02:34:12;;;;;;;1.60;1.50;;;14.90;39.40;;;;;;10256908;28;20236;-72
2023/09/24 02:39:17;;;;;;;1.43;1.33;;;14.90;39.20;;;;;;10265014;28;20242;-72
2023/09/24 02:44:20;;;;;;;1.50;1.40;;;14.80;39.30;;;;;;10260408;28;20630;-72
2023/09/24 02:49:23;;;;;;;2.57;1.40;;;14.70;39.10;;;;;;10266365;28;20617;-72
2023/09/24 02:54:27;;;;;;;1.60;1.40;;;14.60;39.10;;;;;;10265242;28;20228;-72
2023/09/24 02:59:33;;;;;;;1.70;1.60;;;14.60;39.20;;;;;;10263871;28;20231;-73
2023/09/24 03:04:36;;;;;;;1.50;1.40;;;14.50;39.10;;;;;;10266133;28;20237;-75
2023/09/24 03:09:41;;;;;;;1.60;1.50;;;14.30;39.10;;;;;;10261916;28;20326;-75
2023/09/24 03:14:44;;;;;;;1.37;1.27;;;14.10;39.50;;;;;;10263666;28;20227;-76
2023/09/24 03:19:47;;;;;;;1.60;1.30;;;14.00;39.40;;;;;;10256369;28;20263;-76
2023/09/24 03:24:52;;;;;;;1.50;1.40;;;14.00;39.40;;;;;;10260536;28;20231;-75
2023/09/24 03:29:55;;;;;;;1.30;1.20;;;13.90;39.70;;;;;;10260318;28;20307;-72
2023/09/24 03:34:58;;;;;;;1.60;1.50;;;13.90;39.60;;;;;;10265930;28;20598;-73
2023/09/24 03:40:05;;;;;;;1.67;1.47;;;13.90;40.40;;;;;;10264856;28;20307;-72
2023/09/24 03:45:11;;;;;;;2.93;1.80;;;13.90;39.80;;;;;;10261760;28;20322;-73
2023/09/24 03:50:17;;;;;;;2.40;1.50;;;13.80;39.70;;;;;;10263149;28;20226;-73
2023/09/24 03:55:22;;;;;;;1.40;1.30;;;13.80;39.70;;;;;;10262862;28;20280;-72
2023/09/24 04:00:25;;;;;;;1.30;1.30;;;13.90;39.90;;;;;;10262229;28;20239;-72
2023/09/24 04:05:30;;;;;;;1.40;1.30;;;13.80;39.70;;;;;;10260772;28;20281;-76
2023/09/24 04:10:35;;;;;;;1.70;1.60;;;13.80;39.60;;;;;;10258508;28;20945;-76
2023/09/24 04:15:39;;;;;;;1.63;1.50;;;13.80;39.50;;;;;;10258314;28;20948;-72
2023/09/24 04:20:43;;;;;;;1.60;1.50;;;13.70;39.30;;;;;;10257184;28;20227;-72
2023/09/24 04:25:50;;;;;;;1.70;1.60;;;13.60;39.40;;;;;;10256761;28;20235;-72
2023/09/24 04:30:53;;;;;;;1.73;1.37;;;13.60;39.40;;;;;;10254645;28;20240;-72
2023/09/24 04:35:57;;;;;;;1.73;1.63;;;13.50;39.40;;;;;;10254684;28;20602;-72
2023/09/24 04:41:02;;;;;;;1.77;1.67;;;13.40;39.60;;;;;;10255876;28;20293;-72
2023/09/24 04:46:05;;;;;;;1.57;1.47;;;13.30;39.60;;;;;;10259750;28;20232;-72
2023/09/24 04:51:09;;;;;;;2.23;1.50;;;13.30;39.70;;;;;;10254210;28;20232;-72
2023/09/24 04:56:14;;;;;;;1.70;1.60;;;13.20;39.80;;;;;;10260081;28;20241;-71
2023/09/24 05:01:17;;;;;;;1.50;1.40;;;13.20;39.90;;;;;;10260109;28;20650;-75
2023/09/24 05:06:20;;;;;;;1.60;1.50;;;13.20;39.80;;;;;;10258168;28;20228;-76
2023/09/24 05:11:25;;;;;;;2.30;1.50;;;13.30;39.80;;;;;;10257032;28;20251;-73
2023/09/24 05:16:28;;;;;;;1.50;1.40;;;13.30;39.80;;;;;;10256979;28;20234;-72
2023/09/24 05:21:32;;;;;;;1.50;1.40;;;13.20;39.70;;;;;;10257498;28;20253;-72
2023/09/24 05:26:37;;;;;;;1.80;1.70;;;13.20;39.70;;;;;;10257118;28;20365;-72
2023/09/24 05:31:40;;;;;;;1.90;1.80;;;13.20;39.80;;;;;;10253562;28;20220;-73
2023/09/24 05:36:44;;;;;;;2.23;1.60;;;13.10;39.80;;;;;;10257525;28;20237;-72
2023/09/24 05:41:49;;;;;;;1.60;1.50;;;13.10;39.90;;;;;;10257386;28;20311;-72
2023/09/24 05:46:52;;;;;;;1.60;1.50;;;13.10;40.20;;;;;;10256987;28;20740;-72
2023/09/24 05:51:55;;;;;;;1.53;1.43;;;13.10;40.20;;;;;;10256155;28;20225;-72
2023/09/24 05:57:01;;;;;;;1.70;1.60;;;13.10;40.20;;;;;;10258759;28;20250;-72
2023/09/24 06:02:05;;;;;;;1.90;1.73;;;13.10;40.40;;;;;;10257484;28;20227;-72
2023/09/24 06:07:08;;;;;;;1.80;1.60;;;13.20;40.30;;;;;;10258168;28;20227;-73
2023/09/24 06:12:13;;;;;;;1.77;1.67;;;13.10;40.40;;;;;;10263778;28;20243;-72
2023/09/24 06:17:17;;;;;;;1.87;1.53;;;13.10;40.90;;;;;;10275297;28;20627;-72
2023/09/24 06:22:20;;;;;;;2.13;1.67;;;13.10;40.80;;;;;;10269586;28;20224;-72
2023/09/24 06:27:25;;;;;;;4.17;2.10;;;13.10;40.90;;;;;;10268069;28;20276;-71
2023/09/24 06:32:29;;;;;;;2.73;2.40;;;13.20;41.50;;;;;;10272162;28;20219;-72
2023/09/24 06:37:32;;;;;;;2.40;2.20;;;13.20;41.40;;;;;;10272978;28;20259;-71
2023/09/24 06:42:37;;;;;;;2.93;2.17;;;13.20;41.60;;;;;;10271010;28;20228;-72
2023/09/24 06:47:41;;;;;;;2.40;2.20;;;13.20;42.60;;;;;;10263749;28;20259;-72
2023/09/24 06:52:44;;;;;;;3.13;2.60;;;13.20;42.30;;;;;;10270407;28;20279;-72
2023/09/24 06:57:52;;;;;;;2.70;2.50;;;13.30;42.60;;;;;;10273516;28;20224;-72
2023/09/24 07:02:57;;;;;;;3.47;2.40;;;13.40;42.90;;;;;;10264801;28;20223;-72
2023/09/24 07:08:01;;;;;;;2.23;2.13;;;13.50;43.00;;;;;;10263654;28;20232;-72
2023/09/24 07:13:06;;;;;;;2.70;2.50;;;13.70;43.20;;;;;;10270664;28;20218;-72
2023/09/24 07:18:10;;;;;;;3.27;2.77;;;13.70;43.20;;;;;;10270311;28;20242;-72
2023/09/24 07:23:13;;;;;;;2.80;2.60;;;13.90;43.40;;;;;;10272198;28;20237;-72
2023/09/24 07:28:17;;;;;;;3.10;2.80;;;14.00;43.40;;;;;;10259446;28;20363;-73
2023/09/24 07:33:21;;;;;;;3.10;2.90;;;14.20;44.10;;;;;;10259005;28;20227;-72
2023/09/24 07:38:25;;;;;;;3.23;2.90;;;14.30;43.80;;;;;;10259714;28;20260;-73
2023/09/24 07:43:30;;;;;;;3.20;2.50;;;14.50;43.90;;;;;;10259078;28;20585;-72
2023/09/24 07:48:33;;;;;;;3.50;2.83;;;14.70;44.40;;;;;;10259573;28;20238;-75
2023/09/24 07:53:36;;;;;;;3.20;3.00;;;15.00;44.30;;;;;;10258728;28;20223;-75
2023/09/24 07:58:42;;;;;;;3.00;2.57;;;15.20;44.60;;;;;;10262731;28;20236;-77
2023/09/24 08:03:47;;;;;;;2.90;2.70;;;15.50;45.80;;;;;;10262051;28;20278;-77
2023/09/24 08:08:51;;;;;;;2.97;2.77;;;15.80;45.00;;;;;;10259473;28;20223;-77
2023/09/24 08:14:12;;;;;;;3.10;2.83;;;16.10;45.10;;;;;;10259323;28;20720;-77
2023/09/24 08:19:15;;;;;;;5.10;2.80;;;16.40;44.70;;;;;;10261539;28;20796;-76
2023/09/24 08:24:19;;;;;;;2.90;2.63;;;16.70;44.40;;;;;;10260916;28;20242;-77
2023/09/24 08:29:23;;;;;;;3.20;2.70;;;16.90;44.10;;;;;;10260715;28;20235;-74
2023/09/24 08:34:27;;;;;;;3.07;2.77;;;17.20;43.80;;;;;;10258955;28;20239;-74
2023/09/24 08:39:30;;;;;;;2.70;2.43;;;17.40;43.40;;;;;;10258162;28;20239;-74
2023/09/24 08:44:38;;;;;;;2.73;2.53;;;17.60;43.10;;;;;;10256008;28;20701;-74
2023/09/24 08:49:42;;;;;;;2.50;2.30;;;17.80;42.40;;;;;;10255785;28;20236;-74
2023/09/24 08:54:46;;;;;;;2.33;2.10;;;18.10;42.50;;;;;;10251668;28;20235;-74
2023/09/24 08:59:51;;;;;;;2.67;2.33;;;18.30;42.00;;;;;;10259160;28;20236;-77
2023/09/24 09:04:56;;;;;;;2.60;2.30;;;18.50;41.40;;;;;;10256832;28;20227;-76
2023/09/24 09:10:02;;;;;;;2.80;2.30;;;18.70;41.60;;;;;;10256779;28;20234;-76
2023/09/24 09:15:17;;;;;;;3.63;2.80;;;18.90;41.20;;;;;;10261617;28;20230;-75
2023/09/24 09:20:38;;;;;;;3.07;2.43;;;19.10;40.20;;;;;;10254869;28;20227;-75
2023/09/24 09:25:49;;;;;;;2.53;2.33;;;19.20;40.90;;;;;;10257195;28;20234;-75
2023/09/24 09:31:02;;;;;;;2.70;2.10;;;19.40;39.80;;;;;;10260739;28;21041;-75
2023/09/24 09:36:19;;;;;;;3.90;2.70;;;19.60;39.70;;;;;;10258479;28;20298;-75
2023/09/24 09:41:24;;;;;;;2.63;2.10;;;19.80;40.20;;;;;;10257519;28;20236;-75
2023/09/24 09:46:30;;;;;;;2.73;2.17;;;19.90;39.60;;;;;;10259588;28;20227;-75
2023/09/24 09:51:39;;;;;;;2.67;2.47;;;20.00;38.90;;;;;;10259066;28;20220;-75
2023/09/24 09:56:43;;;;;;;2.90;2.43;;;20.20;38.60;;;;;;10260763;28;20310;-76
2023/09/24 10:01:48;;;;;;;2.23;2.00;;;20.30;39.10;;;;;;10252568;28;20639;-76
2023/09/24 10:06:51;;;;;;;2.53;2.27;;;20.40;38.20;;;;;;10254331;28;20628;-76
2023/09/24 10:11:56;;;;;;;2.97;2.10;;;20.50;38.60;;;;;;10259021;28;20233;-75
2023/09/24 10:17:25;;;;;;;3.40;2.30;;;20.70;37.70;;;;;;10252066;28;20236;-75
2023/09/24 10:22:31;;;;;;;2.33;2.10;;;20.80;37.20;;;;;;10262350;28;21024;-75
2023/09/24 10:27:34;;;;;;;2.07;1.97;;;20.90;37.30;;;;;;10252218;28;20235;-74
2023/09/24 10:32:51;;;;;;;2.17;2.00;;;21.00;37.40;;;;;;10256674;28;20311;-75
2023/09/24 10:38:03;;;;;;;2.47;2.13;;;21.10;36.30;;;;;;10260565;28;20330;-75
2023/09/24 10:43:17;;;;;;;3.47;2.30;;;21.20;35.30;;;;;;10257865;28;20228;-75
2023/09/24 10:48:22;;;;;;;2.43;2.03;;;21.30;36.00;;;;;;10257582;28;20592;-75
2023/09/24 10:53:45;;;;;;;1.60;1.50;;;21.30;36.70;;;;;;10255727;28;20223;-75
2023/09/24 10:58:50;;;;;;;1.60;1.50;;;21.50;36.50;;;;;;10257165;28;21028;-75
2023/09/24 11:03:54;;;;;;;1.80;1.70;;;21.50;35.50;;;;;;10260996;28;20224;-75
2023/09/24 11:09:16;;;;;;;3.13;1.50;;;21.70;35.20;;;;;;10262774;28;20231;-75
2023/09/24 11:14:24;;;;;;;1.70;1.60;;;21.80;32.50;;;;;;10260431;28;20239;-75
2023/09/24 11:19:45;;;;;;;1.70;1.50;;;21.90;34.60;;;;;;10263122;28;20224;-76
2023/09/24 11:24:50;;;;;;;2.30;1.67;;;22.00;33.10;;;;;;10261512;28;21083;-75
2023/09/24 11:30:00;;;;;;;2.23;1.37;;;22.00;34.10;;;;;;10259609;28;20232;-75
2023/09/24 11:35:09;;;;;;;1.87;1.47;;;21.90;32.00;;;;;;10257729;28;20894;-75
2023/09/24 11:40:24;;;;;;;1.40;1.30;;;21.90;31.80;;;;;;10262719;28;20380;-75
2023/09/24 11:45:39;;;;;;;1.40;1.30;;;21.80;31.30;;;;;;10260139;28;20306;-75
2023/09/24 11:50:46;;;;;;;2.70;1.37;;;21.70;30.70;;;;;;10258950;28;20233;-75
2023/09/24 11:55:50;;;;;;;1.73;1.47;;;21.70;31.60;;;;;;10263354;28;20319;-76
2023/09/24 12:00:53;;;;;;;1.50;1.40;;;21.70;32.90;;;;;;10260290;28;20232;-76
2023/09/24 12:05:58;;;;;;;1.60;1.50;;;21.80;32.90;;;;;;10261703;28;20239;-76
2023/09/24 12:11:02;;;;;;;1.57;1.40;;;21.80;32.10;;;;;;10257736;28;20969;-74
2023/09/24 12:16:05;;;;;;;1.57;1.47;;;21.90;32.80;;;;;;10263117;28;20224;-76
2023/09/24 12:21:10;;;;;;;1.97;1.50;;;22.00;32.50;;;;;;10264506;28;20545;-75
2023/09/24 12:26:13;;;;;;;2.20;1.43;;;22.00;31.20;;;;;;10258918;28;20267;-76
2023/09/24 12:31:16;;;;;;;1.60;1.50;;;22.00;31.60;;;;;;10264288;28;20227;-75
2023/09/24 12:36:21;;;;;;;2.33;1.40;;;22.00;31.60;;;;;;10262762;28;20231;-75
2023/09/24 12:41:24;;;;;;;2.53;1.50;;;21.80;30.90;;;;;;10261903;28;20247;-75
2023/09/24 12:46:27;;;;;;;1.73;1.30;;;21.70;31.30;;;;;;10260778;28;20236;-75
2023/09/24 12:51:32;;;;;;;1.90;1.40;;;21.70;31.30;;;;;;10260980;28;20236;-75
2023/09/24 12:56:35;;;;;;;1.63;1.43;;;21.70;30.60;;;;;;10267396;28;20263;-75
2023/09/24 13:01:38;;;;;;;1.83;1.40;;;21.80;31.40;;;;;;10256241;28;20686;-76
2023/09/24 13:06:45;;;;;;;1.70;1.60;;;21.80;31.10;;;;;;10257670;28;20239;-75
2023/09/24 13:11:49;;;;;;;1.70;1.60;;;21.90;29.30;;;;;;10257986;28;20228;-74
2023/09/24 13:16:52;;;;;;;2.00;1.80;;;22.00;30.20;;;;;;10253928;28;20227;-75
2023/09/24 13:21:57;;;;;;;2.80;1.90;;;21.90;29.30;;;;;;10257497;28;20239;-75
2023/09/24 13:27:00;;;;;;;1.83;1.70;;;22.00;29.10;;;;;;10259877;28;20407;-76
2023/09/24 13:32:04;;;;;;;1.70;1.60;;;22.00;29.70;;;;;;10259005;28;20239;-75
2023/09/24 13:37:09;;;;;;;2.00;1.87;;;22.10;29.70;;;;;;10259622;28;20243;-75
2023/09/24 13:42:12;;;;;;;2.50;1.80;;;22.10;28.40;;;;;;10260145;28;20223;-75
2023/09/24 13:47:16;;;;;;;1.80;1.70;;;22.10;29.00;;;;;;10254394;28;20223;-75
2023/09/24 13:52:21;;;;;;;2.40;1.80;;;22.20;29.20;;;;;;10258976;28;20283;-75
2023/09/24 13:57:28;;;;;;;3.73;1.77;;;22.20;29.00;;;;;;10250431;28;20234;-72
2023/09/24 14:02:31;;;;;;;2.87;1.47;;;22.30;29.50;;;;;;10253764;28;20615;-76
2023/09/24 14:07:35;;;;;;;1.93;1.50;;;22.40;29.90;;;;;;10256090;28;20279;-75
2023/09/24 14:12:39;;;;;;;1.67;1.57;;;22.40;29.20;;;;;;10260343;28;20240;-76
2023/09/24 14:17:42;;;;;;;2.53;1.60;;;22.50;29.80;;;;;;10261342;28;20238;-76
2023/09/24 14:22:51;;;;;;;1.87;1.77;;;22.50;29.70;;;;;;10256144;28;20231;-76
2023/09/24 14:27:54;;;;;;;1.70;1.60;;;22.50;29.10;;;;;;10257982;28;20310;-76
2023/09/24 14:32:58;;;;;;;1.80;1.70;;;22.50;29.30;;;;;;10260015;28;20223;-76
2023/09/24 14:38:03;;;;;;;1.73;1.63;;;22.50;29.30;;;;;;10265851;28;20745;-76
2023/09/24 14:43:06;;;;;;;1.97;1.77;;;22.50;28.20;;;;;;10264674;28;20219;-75
2023/09/24 14:48:09;;;;;;;1.60;1.50;;;22.50;29.00;;;;;;10267419;28;21160;-76
2023/09/24 14:53:14;;;;;;;2.77;1.80;;;22.50;28.70;;;;;;10265047;28;20370;-76
2023/09/24 14:58:18;;;;;;;1.50;1.37;;;22.50;28.30;;;;;;10265505;28;20227;-76
2023/09/24 15:03:22;;;;;;;1.50;1.40;;;22.50;28.60;;;;;;10260710;28;20249;-76
2023/09/24 15:08:27;;;;;;;1.70;1.60;;;22.50;28.10;;;;;;10256367;28;20312;-75
2023/09/24 15:13:31;;;;;;;1.60;1.50;;;22.50;27.80;;;;;;10263063;28;20228;-76
2023/09/24 15:18:35;;;;;;;1.50;1.40;;;22.50;28.10;;;;;;10254316;28;20239;-76
2023/09/24 15:23:40;;;;;;;1.70;1.60;;;22.50;27.80;;;;;;10260841;28;20232;-75
2023/09/24 15:28:43;;;;;;;2.93;2.63;;;22.50;27.50;;;;;;10265100;28;20418;-76
2023/09/24 15:33:46;;;;;;;2.23;2.03;;;22.50;28.10;;;;;;10260726;28;20236;-76
2023/09/24 15:38:52;;;;;;;2.40;2.20;;;22.50;28.20;;;;;;10261089;28;20929;-76
2023/09/24 15:43:55;;;;;;;3.83;3.20;;;22.40;27.20;;;;;;10262203;28;20239;-76
2023/09/24 15:48:58;;;;;;;2.43;2.10;;;22.40;27.70;;;;;;10261248;28;20231;-76
2023/09/24 15:54:03;;;;;;;1.80;1.70;;;22.40;27.60;;;;;;10259227;28;20219;-74
2023/09/24 15:59:07;;;;;;;2.97;1.90;;;22.30;27.40;;;;;;10254652;28;20239;-75
2023/09/24 16:04:10;;;;;;;2.10;1.90;;;22.30;27.90;;;;;;10254328;28;20546;-76
2023/09/24 16:09:14;;;;;;;1.87;1.57;;;22.30;28.00;;;;;;10258839;28;20236;-75
2023/09/24 16:14:18;;;;;;;1.80;1.70;;;22.30;27.90;;;;;;10259919;28;20244;-74
2023/09/24 16:19:21;;;;;;;2.00;1.83;;;22.20;28.50;;;;;;10251100;28;21243;-73
2023/09/24 16:24:26;;;;;;;1.80;1.70;;;22.20;28.00;;;;;;10262073;28;20601;-74
2023/09/24 16:29:29;;;;;;;2.43;1.80;;;22.20;28.20;;;;;;10255053;28;20238;-76
2023/09/24 16:34:34;;;;;;;2.80;1.83;;;22.10;28.30;;;;;;10259821;28;20248;-76
2023/09/24 16:39:39;;;;;;;2.10;1.90;;;22.10;28.20;;;;;;10259654;28;20259;-76
2023/09/24 16:44:42;;;;;;;1.83;1.67;;;22.00;28.20;;;;;;10256042;28;20322;-76
2023/09/24 16:49:45;;;;;;;2.97;1.70;;;21.80;28.50;;;;;;10259947;28;20231;-73
2023/09/24 16:54:50;;;;;;;2.73;1.80;;;21.70;28.70;;;;;;10257830;28;20228;-75
2023/09/24 16:59:53;;;;;;;2.00;1.90;;;21.60;28.90;;;;;;10260580;28;20227;-76
2023/09/24 17:04:59;;;;;;;2.33;2.13;;;21.50;28.80;;;;;;10257708;28;20227;-76
2023/09/24 17:10:04;;;;;;;2.17;1.73;;;21.40;28.60;;;;;;10254714;28;20600;-73
2023/09/24 17:15:08;;;;;;;2.03;1.70;;;21.30;28.80;;;;;;10253760;28;20722;-75
2023/09/24 17:20:12;;;;;;;2.00;1.80;;;21.20;29.50;;;;;;10260752;28;20224;-78
2023/09/24 17:25:17;;;;;;;2.70;1.73;;;21.10;29.50;;;;;;10259000;28;20279;-75
2023/09/24 17:30:21;;;;;;;1.87;1.50;;;21.00;29.60;;;;;;10259606;28;20869;-74
2023/09/24 17:35:24;;;;;;;1.67;1.57;;;21.00;29.60;;;;;;10260607;28;20941;-77
2023/09/24 17:40:29;;;;;;;2.13;1.53;;;21.00;29.40;;;;;;10261897;28;20532;-77
2023/09/24 17:45:34;;;;;;;1.73;1.50;;;20.90;29.30;;;;;;10257500;28;20232;-77
2023/09/24 17:50:37;;;;;;;3.57;1.77;;;20.70;29.20;;;;;;10258343;28;20235;-76
2023/09/24 17:55:42;;;;;;;1.73;1.63;;;20.50;29.20;;;;;;10260416;28;20236;-77
2023/09/24 18:00:45;;;;;;;2.10;1.80;;;20.30;29.50;;;;;;10264230;28;20363;-77
2023/09/24 18:05:48;;;;;;;1.50;1.40;;;20.10;29.60;;;;;;10259808;28;20231;-77
2023/09/24 18:10:53;;;;;;;1.77;1.67;;;19.90;29.50;;;;;;10269471;28;20232;-77
2023/09/24 18:15:57;;;;;;;1.50;1.40;;;19.80;29.70;;;;;;10268698;28;20231;-77
2023/09/24 18:21:02;;;;;;;1.87;1.70;;;19.70;29.80;;;;;;10274047;28;20231;-77
2023/09/24 18:26:06;;;;;;;1.70;1.60;;;19.60;29.70;;;;;;10263590;28;20286;-77
2023/09/24 18:31:10;;;;;;;1.53;1.43;;;19.40;29.70;;;;;;10270725;28;20223;-78
2023/09/24 18:36:13;;;;;;;1.90;1.80;;;19.20;29.70;;;;;;10263407;28;20302;-78
2023/09/24 18:41:18;;;;;;;2.43;2.00;;;19.10;29.90;;;;;;10272532;28;20640;-78
2023/09/24 18:46:21;;;;;;;1.90;1.80;;;18.90;30.00;;;;;;10253919;28;20242;-77
2023/09/24 18:51:24;;;;;;;1.80;1.70;;;18.90;30.00;;;;;;10248260;28;20246;-78
2023/09/24 18:56:29;;;;;;;2.57;2.37;;;18.80;30.00;;;;;;10252604;28;20231;-77
2023/09/24 19:01:32;;;;;;;2.60;2.03;;;18.70;30.00;;;;;;10252526;28;20238;-77
2023/09/24 19:06:35;;;;;;;2.30;2.10;;;18.50;30.00;;;;;;10251192;28;20859;-77
2023/09/24 19:11:40;;;;;;;3.20;2.50;;;18.40;30.00;;;;;;10251984;28;20243;-77
2023/09/24 19:16:43;;;;;;;2.40;2.20;;;18.20;30.20;;;;;;10253271;28;20232;-77
2023/09/24 19:21:46;;;;;;;2.30;2.10;;;18.10;30.40;;;;;;10251393;28;21121;-77
2023/09/24 19:26:54;;;;;;;2.90;2.70;;;18.00;30.50;;;;;;10250936;28;21076;-77
2023/09/24 19:31:57;;;;;;;2.33;2.13;;;17.90;30.50;;;;;;10261720;28;21111;-77
2023/09/24 19:37:00;;;;;;;2.90;2.60;;;17.80;30.50;;;;;;10278170;28;20228;-77
2023/09/24 19:42:06;;;;;;;2.40;2.10;;;17.70;30.60;;;;;;10273069;28;20361;-77
2023/09/24 19:47:10;;;;;;;2.20;2.00;;;17.60;30.80;;;;;;10268104;28;20231;-72
2023/09/24 19:52:18;;;;;;;2.23;2.07;;;17.50;30.70;;;;;;10263052;28;20273;-72
2023/09/24 19:57:22;;;;;;;3.07;2.10;;;17.50;30.70;;;;;;10265906;28;20327;-72
2023/09/24 20:02:26;;;;;;;2.37;2.17;;;17.40;30.90;;;;;;10261795;28;20798;-72
2023/09/24 20:07:29;;;;;;;3.33;2.10;;;17.30;30.90;;;;;;10266222;28;20242;-75
2023/09/24 20:12:34;;;;;;;2.83;2.10;;;17.20;30.90;;;;;;10266263;28;20315;-72
2023/09/24 20:17:38;;;;;;;2.57;2.37;;;17.10;31.00;;;;;;10264563;28;20259;-72
2023/09/24 20:22:41;;;;;;;2.17;1.97;;;17.00;30.90;;;;;;10265594;28;20355;-72
2023/09/24 20:27:47;;;;;;;3.37;2.70;;;16.90;30.90;;;;;;10264094;28;20822;-77
2023/09/24 20:32:50;;;;;;;3.00;2.53;;;16.90;31.10;;;;;;10266019;28;20247;-77
2023/09/24 20:37:53;;;;;;;2.70;2.50;;;16.70;30.90;;;;;;10267662;28;20231;-77
2023/09/24 20:42:58;;;;;;;3.17;2.90;;;16.50;31.00;;;;;;10272590;28;20813;-77
2023/09/24 20:48:02;;;;;;;3.03;2.73;;;16.30;31.20;;;;;;10269065;28;20316;-76
2023/09/24 20:53:06;;;;;;;3.17;2.93;;;16.00;31.30;;;;;;10261214;28;20223;-77
2023/09/24 20:58:10;;;;;;;2.90;2.60;;;15.80;31.50;;;;;;10261310;28;20220;-77
2023/09/24 21:03:14;;;;;;;2.87;2.50;;;15.70;32.20;;;;;;10267755;28;20232;-77
2023/09/24 21:08:18;;;;;;;2.60;2.33;;;15.70;32.50;;;;;;10270931;28;20236;-77
2023/09/24 21:13:22;;;;;;;2.50;2.30;;;15.70;32.70;;;;;;10273376;28;20255;-77
2023/09/24 21:18:25;;;;;;;4.13;2.77;;;15.70;32.70;;;;;;10274464;28;20242;-77
2023/09/24 21:23:29;;;;;;;2.73;2.50;;;15.70;32.40;;;;;;10264976;28;20228;-77
2023/09/24 21:28:34;;;;;;;2.90;2.43;;;15.60;32.40;;;;;;10272279;28;20325;-77
2023/09/24 21:33:37;;;;;;;2.70;2.50;;;15.60;32.60;;;;;;10260951;28;20805;-77
2023/09/24 21:38:41;;;;;;;2.73;2.43;;;15.50;32.10;;;;;;10271665;28;20232;-77
2023/09/24 21:43:48;;;;;;;3.00;2.70;;;15.30;32.10;;;;;;10264910;28;20226;-77
2023/09/24 21:48:53;;;;;;;2.73;2.53;;;15.10;32.20;;;;;;10266718;28;20270;-77
2023/09/24 21:53:57;;;;;;;2.90;2.70;;;14.90;32.00;;;;;;10262887;28;20230;-76
2023/09/24 21:59:02;;;;;;;2.80;2.50;;;14.70;32.30;;;;;;10267870;28;20616;-77
2023/09/24 22:04:06;;;;;;;2.90;2.70;;;14.60;33.00;;;;;;10268853;28;20303;-77
2023/09/24 22:09:09;;;;;;;2.50;2.30;;;14.60;32.70;;;;;;10269373;28;20222;-76
2023/09/24 22:14:14;;;;;;;2.47;2.27;;;14.70;32.70;;;;;;10262289;28;20241;-77
2023/09/24 22:19:17;;;;;;;2.73;2.47;;;14.60;32.80;;;;;;10267694;28;20561;-76
2023/09/24 22:24:21;;;;;;;3.17;2.87;;;14.60;32.90;;;;;;10271572;28;20228;-76
2023/09/24 22:29:25;;;;;;;2.53;2.33;;;14.50;32.80;;;;;;10270909;28;20232;-76
2023/09/24 22:34:28;;;;;;;2.87;2.67;;;14.50;33.10;;;;;;10270429;28;20624;-77
2023/09/24 22:39:31;;;;;;;2.73;2.53;;;14.50;33.10;;;;;;10266840;28;20231;-76
2023/09/24 22:44:36;;;;;;;2.40;2.07;;;14.40;33.10;;;;;;10271442;28;20805;-77
2023/09/24 22:49:39;;;;;;;2.00;1.90;;;14.50;33.40;;;;;;10269738;28;20236;-77
2023/09/24 22:54:43;;;;;;;2.70;2.20;;;14.40;33.10;;;;;;10275143;28;20319;-77
2023/09/24 22:59:48;;;;;;;3.00;2.20;;;14.40;33.10;;;;;;10276362;28;20235;-77
2023/09/24 23:04:51;;;;;;;2.43;2.23;;;14.40;33.30;;;;;;10267808;28;20236;-77
2023/09/24 23:09:54;;;;;;;2.40;2.20;;;14.50;33.20;;;;;;10281951;28;20242;-77
2023/09/24 23:14:59;;;;;;;2.00;1.90;;;14.40;32.90;;;;;;10275637;28;20260;-77
2023/09/24 23:20:02;;;;;;;2.13;1.93;;;14.40;33.10;;;;;;10281695;28;20682;-76
2023/09/24 23:25:07;;;;;;;2.17;1.97;;;14.40;32.90;;;;;;10276870;28;20323;-77
2023/09/24 23:30:13;;;;;;;2.33;2.17;;;14.40;33.10;;;;;;10275974;28;20243;-77
2023/09/24 23:35:16;;;;;;;1.70;1.60;;;14.30;33.20;;;;;;10273793;28;20236;-77
2023/09/24 23:40:22;;;;;;;2.07;1.97;;;14.30;33.00;;;;;;10276607;28;20235;-77
2023/09/24 23:45:28;;;;;;;2.93;2.10;;;14.30;33.10;;;;;;10274841;28;20227;-76
2023/09/24 23:50:31;;;;;;;2.20;1.90;;;14.20;33.30;;;;;;10269563;28;20279;-76
2023/09/24 23:55:35;;;;;;;2.73;2.30;;;14.10;33.00;;;;;;10272738;28;20241;-76
